Grand Lake Stream, Maine
Current Conditions -  °F | °C
As of 3:53 AM on Wednesday 26 Nov 2014 (Local Time) from KMLT Reporting Station
Scattered Clouds Scattered Clouds  
Wind Chill: 38°   Ceiling: Unl
Heat Index: 41°   Visibility: 10mi
Dew Point: 24°   Wind: 5mph
Humidity: 51%   Direction: NA
Pressure: 30.1"   Gusts: NA
Location:  45.18°N, 67.77°W
Report Text: KMLT 260853Z AUTO VRB04KT 10SM SCT048 05/M04 A3010 RMK AO2 SLP199 T00501044 53030
Loading
Personal Weather Stations






























Interactive Weather Map New forecast layout! Learn more

10-Day Weather Forecast

Advertisements
Track Severe Weather on mobile